createdAt,value
2023-04-18T00:01:34.646Z,26.57
2023-04-18T00:04:03.409Z,26.07
2023-04-18T00:06:31.885Z,31.07
2023-04-18T00:09:00.031Z,24.30
2023-04-18T00:11:27.835Z,26.50
2023-04-18T00:13:57.824Z,26.97
2023-04-18T00:16:25.648Z,25.13
2023-04-18T00:18:53.895Z,27.47
2023-04-18T00:21:23.161Z,28.07
2023-04-18T00:23:51.053Z,24.63
2023-04-18T00:26:18.914Z,25.10
2023-04-18T00:28:49.118Z,22.77
2023-04-18T00:31:19.870Z,26.63
2023-04-18T00:33:47.651Z,24.80
2023-04-18T00:36:16.478Z,25.00
2023-04-18T00:38:46.269Z,23.53
2023-04-18T00:41:16.046Z,24.70
2023-04-18T00:43:44.347Z,23.97
2023-04-18T00:46:12.233Z,25.90
2023-04-18T00:48:41.780Z,23.73
2023-04-18T00:51:10.871Z,25.47
2023-04-18T00:53:38.881Z,25.80
2023-04-18T00:56:07.455Z,24.93
2023-04-18T00:58:35.849Z,23.43
2023-04-18T01:01:03.860Z,26.03
2023-04-18T01:03:32.886Z,24.00
2023-04-18T01:06:02.757Z,23.80
2023-04-18T01:08:34.241Z,24.03
2023-04-18T01:11:02.083Z,22.50
2023-04-18T01:13:30.060Z,22.93
2023-04-18T01:15:59.038Z,22.63
2023-04-18T01:18:27.264Z,23.10
2023-04-18T01:20:56.897Z,21.80
2023-04-18T01:23:26.773Z,24.13
2023-04-18T01:25:56.206Z,23.37
2023-04-18T01:28:27.901Z,23.33
2023-04-18T01:30:57.106Z,24.07
2023-04-18T01:33:24.919Z,22.80
2023-04-18T01:35:52.966Z,25.90
2023-04-18T01:38:20.613Z,23.90
2023-04-18T01:40:48.529Z,24.63
2023-04-18T01:43:17.852Z,21.27
2023-04-18T01:45:45.640Z,22.73
2023-04-18T01:48:13.551Z,20.67
2023-04-18T01:50:43.409Z,22.37
2023-04-18T01:53:11.707Z,22.00
2023-04-18T01:55:39.376Z,20.80
2023-04-18T01:58:07.742Z,21.90
2023-04-18T02:00:38.230Z,21.30
2023-04-18T02:03:06.714Z,20.83
2023-04-18T02:05:34.525Z,20.80
2023-04-18T02:08:02.241Z,22.17
2023-04-18T02:10:30.233Z,22.43
2023-04-18T02:12:58.534Z,21.03
2023-04-18T02:15:26.321Z,22.87
2023-04-18T02:17:55.724Z,25.20
2023-04-18T02:20:26.309Z,26.70
2023-04-18T02:22:54.617Z,26.37
2023-04-18T02:25:23.601Z,25.73
2023-04-18T02:27:51.904Z,24.80
2023-04-18T02:30:19.703Z,22.07
2023-04-18T02:32:47.909Z,23.53
2023-04-18T02:35:17.184Z,21.90
2023-04-18T02:37:45.198Z,21.40
2023-04-18T02:40:13.680Z,20.40
2023-04-18T02:42:42.227Z,21.20
2023-04-18T02:45:11.046Z,20.50
2023-04-18T02:47:51.137Z,19.50
2023-04-18T02:50:24.717Z,19.80
2023-04-18T02:52:53.467Z,19.57
2023-04-18T02:55:22.977Z,20.03
2023-04-18T02:57:53.599Z,22.40
2023-04-18T03:00:54.308Z,19.03
2023-04-18T03:03:42.580Z,19.30
2023-04-18T03:06:31.701Z,18.97
2023-04-18T03:09:01.707Z,20.20
2023-04-18T03:11:29.920Z,18.23
2023-04-18T03:13:58.073Z,18.73
2023-04-18T03:16:30.349Z,18.30
2023-04-18T03:18:58.237Z,16.73
2023-04-18T03:21:27.447Z,17.03
2023-04-18T03:23:56.976Z,17.23
2023-04-18T03:26:25.203Z,17.23
2023-04-18T03:28:54.334Z,17.40
2023-04-18T03:31:22.437Z,18.63
2023-04-18T03:33:51.625Z,16.90
2023-04-18T03:36:25.220Z,17.00
2023-04-18T03:38:56.846Z,17.00
2023-04-18T03:41:25.903Z,18.60
2023-04-18T03:43:55.565Z,17.60
2023-04-18T03:46:24.572Z,16.00
2023-04-18T03:48:54.313Z,16.77
2023-04-18T03:51:22.641Z,16.67
2023-04-18T03:53:50.313Z,16.20
2023-04-18T03:56:20.591Z,15.97
2023-04-18T03:58:51.346Z,16.80
2023-04-18T04:01:21.587Z,15.50
2023-04-18T04:03:51.938Z,15.80
2023-04-18T04:06:22.540Z,16.43
2023-04-18T04:08:50.280Z,16.47
2023-04-18T04:11:24.111Z,15.90
2023-04-18T04:13:52.188Z,16.10
2023-04-18T04:16:24.535Z,17.87
2023-04-18T04:18:54.056Z,16.93
2023-04-18T04:21:27.155Z,16.50
2023-04-18T04:23:55.162Z,15.53
2023-04-18T04:26:39.125Z,15.53
2023-04-18T04:29:26.279Z,16.27
2023-04-18T04:31:54.224Z,15.50
2023-04-18T04:34:31.076Z,15.70
2023-04-18T04:37:00.795Z,16.50
2023-04-18T04:39:29.852Z,14.60
2023-04-18T04:42:19.359Z,15.17
2023-04-18T04:44:57.197Z,16.90
2023-04-18T04:47:26.293Z,16.93
2023-04-18T04:49:55.284Z,17.30
2023-04-18T04:52:23.109Z,17.27
2023-04-18T04:54:51.749Z,16.67
2023-04-18T04:57:22.948Z,16.80
2023-04-18T04:59:51.423Z,16.40
2023-04-18T05:02:23.112Z,16.70
2023-04-18T05:04:51.585Z,16.00
2023-04-18T05:07:19.303Z,16.97
2023-04-18T05:09:47.438Z,17.40
2023-04-18T05:12:15.257Z,17.70
2023-04-18T05:14:44.697Z,16.70
2023-04-18T05:17:12.457Z,17.83
2023-04-18T05:22:29.532Z,16.80
2023-04-18T05:24:57.387Z,18.70
2023-04-18T05:27:25.099Z,18.10
2023-04-18T05:29:54.086Z,18.33
2023-04-18T05:32:22.321Z,17.27
2023-04-18T05:34:51.056Z,15.80
2023-04-18T05:37:20.056Z,16.43
2023-04-18T05:39:48.356Z,16.53
2023-04-18T05:42:16.063Z,17.33
2023-04-18T05:44:43.830Z,16.07
2023-04-18T05:47:13.274Z,15.30
2023-04-18T05:49:41.070Z,14.87
2023-04-18T05:52:08.898Z,15.57
2023-04-18T05:54:36.711Z,15.50
2023-04-18T05:57:04.856Z,16.47
2023-04-18T05:59:32.793Z,15.63
2023-04-18T06:02:02.080Z,15.77
2023-04-18T06:04:31.389Z,15.27
2023-04-18T06:06:59.297Z,15.47
2023-04-18T06:09:27.588Z,15.37
2023-04-18T06:11:55.243Z,14.93
2023-04-18T06:14:23.301Z,15.50
2023-04-18T06:16:51.351Z,14.70
2023-04-18T06:19:19.062Z,15.13
2023-04-18T06:21:48.059Z,13.73
2023-04-18T06:24:17.543Z,14.40
2023-04-18T06:26:45.554Z,12.93
2023-04-18T06:29:13.977Z,13.10
2023-04-18T06:31:45.713Z,14.63
2023-04-18T06:34:13.794Z,13.90
2023-04-18T06:36:41.741Z,13.90
2023-04-18T06:39:11.714Z,13.13
2023-04-18T06:41:39.902Z,14.07
2023-04-18T06:44:07.752Z,14.37
2023-04-18T06:46:35.907Z,12.43
2023-04-18T06:49:03.808Z,13.00
2023-04-18T06:51:31.997Z,12.90
2023-04-18T06:53:59.979Z,13.30
2023-04-18T06:56:30.754Z,13.00
2023-04-18T06:58:58.697Z,13.70
2023-04-18T07:01:26.667Z,14.00
2023-04-18T07:03:54.710Z,14.60
2023-04-18T07:06:22.557Z,14.60
2023-04-18T07:08:51.745Z,14.57
2023-04-18T07:11:20.480Z,12.97
2023-04-18T07:13:50.348Z,12.90
2023-04-18T07:16:18.544Z,13.30
2023-04-18T07:18:46.254Z,12.50
2023-04-18T07:21:13.974Z,13.47
2023-04-18T07:23:42.071Z,13.60
2023-04-18T07:26:11.320Z,13.10
2023-04-18T07:28:39.163Z,13.13
2023-04-18T07:31:11.557Z,13.30
2023-04-18T07:33:39.450Z,12.50
2023-04-18T07:36:07.477Z,12.10
2023-04-18T07:38:35.828Z,12.73
2023-04-18T07:41:03.822Z,12.10
2023-04-18T07:43:31.975Z,11.70
2023-04-18T07:46:00.195Z,12.37
2023-04-18T07:48:31.142Z,12.47
2023-04-18T07:51:00.008Z,13.10
2023-04-18T07:53:27.688Z,13.33
2023-04-18T07:55:56.274Z,13.40
2023-04-18T07:58:24.564Z,12.60
2023-04-18T08:00:52.325Z,12.93
2023-04-18T08:03:20.203Z,13.27
2023-04-18T08:05:50.079Z,14.70
2023-04-18T08:08:18.076Z,13.23
2023-04-18T08:10:46.689Z,13.33
2023-04-18T08:13:14.652Z,13.60
2023-04-18T08:15:42.482Z,12.70
2023-04-18T08:18:10.340Z,12.97
2023-04-18T08:20:38.269Z,13.30
2023-04-18T08:23:10.364Z,13.27
2023-04-18T08:25:40.070Z,13.40
2023-04-18T08:28:07.819Z,12.63
2023-04-18T08:30:36.219Z,13.67
2023-04-18T08:33:04.050Z,13.90
2023-04-18T08:35:31.861Z,13.43
2023-04-18T08:37:59.564Z,13.30
2023-04-18T08:40:30.187Z,12.60
2023-04-18T08:43:04.761Z,12.97
2023-04-18T08:45:33.343Z,12.93
2023-04-18T08:48:03.554Z,13.03
2023-04-18T08:50:32.302Z,13.07
2023-04-18T08:53:00.846Z,12.23
2023-04-18T08:55:30.339Z,13.63
2023-04-18T08:57:58.056Z,13.80
2023-04-18T09:00:27.206Z,12.60
2023-04-18T09:02:57.356Z,13.30
2023-04-18T09:05:27.061Z,13.00
2023-04-18T09:07:56.143Z,13.37
2023-04-18T09:10:29.159Z,12.90
2023-04-18T09:12:58.740Z,12.73
2023-04-18T09:15:28.563Z,12.57
2023-04-18T09:17:57.717Z,12.93
2023-04-18T09:20:36.005Z,13.27
2023-04-18T09:23:04.828Z,13.07
2023-04-18T09:25:36.030Z,12.70
2023-04-18T09:28:06.278Z,12.50
2023-04-18T09:30:35.112Z,12.37
2023-04-18T09:33:06.984Z,13.30
2023-04-18T09:35:35.978Z,13.20
2023-04-18T09:38:04.108Z,12.70
2023-04-18T09:40:31.850Z,12.60
2023-04-18T09:42:59.760Z,12.13
2023-04-18T09:45:28.906Z,11.93
2023-04-18T09:47:57.249Z,12.47
2023-04-18T09:50:25.125Z,12.70
2023-04-18T09:52:53.647Z,12.80
2023-04-18T09:55:21.701Z,12.23
2023-04-18T09:57:52.296Z,11.83
2023-04-18T10:00:24.445Z,13.03
2023-04-18T10:02:56.041Z,12.77
2023-04-18T10:05:25.580Z,12.50
2023-04-18T10:07:53.929Z,13.00
2023-04-18T10:10:21.796Z,12.60
2023-04-18T10:12:50.982Z,12.40
2023-04-18T10:15:19.104Z,13.07
2023-04-18T10:18:03.582Z,13.87
2023-04-18T10:20:35.358Z,12.27
2023-04-18T10:23:19.167Z,12.00
2023-04-18T10:25:51.159Z,12.90
2023-04-18T10:28:21.058Z,13.13
2023-04-18T10:30:56.843Z,13.13
2023-04-18T10:33:30.894Z,11.60
2023-04-18T10:36:02.677Z,12.73
2023-04-18T10:38:30.867Z,12.30
2023-04-18T10:41:14.868Z,12.67
2023-04-18T10:44:01.817Z,12.97
2023-04-18T10:46:32.857Z,12.93
2023-04-18T10:49:20.711Z,12.53
2023-04-18T10:51:50.169Z,11.37
2023-04-18T10:54:20.081Z,11.83
2023-04-18T10:56:53.301Z,12.40
2023-04-18T10:59:22.133Z,12.80
2023-04-18T11:01:50.224Z,12.70
2023-04-18T11:04:19.203Z,13.03
2023-04-18T11:06:53.287Z,13.03
2023-04-18T11:09:21.221Z,12.47
2023-04-18T11:12:03.437Z,14.17
2023-04-18T11:14:40.566Z,12.37
2023-04-18T11:17:21.188Z,12.43
2023-04-18T11:19:49.697Z,12.53
2023-04-18T11:22:19.035Z,12.17
2023-04-18T11:24:46.832Z,12.53
2023-04-18T11:27:14.779Z,11.90
2023-04-18T11:29:42.536Z,12.20
2023-04-18T11:32:10.986Z,12.33
2023-04-18T11:34:38.961Z,13.57
2023-04-18T11:37:07.257Z,16.00
2023-04-18T11:39:37.239Z,14.10
2023-04-18T11:42:05.720Z,12.90
2023-04-18T11:44:36.224Z,11.67
2023-04-18T11:47:04.259Z,13.10
2023-04-18T11:49:32.863Z,12.70
2023-04-18T11:52:01.378Z,13.53
2023-04-18T11:54:42.968Z,13.90
2023-04-18T11:57:20.427Z,12.67
2023-04-18T11:59:52.433Z,12.40
2023-04-18T12:02:20.726Z,11.97
2023-04-18T12:04:53.456Z,12.43
2023-04-18T12:07:31.739Z,13.40
2023-04-18T12:10:00.882Z,12.57
2023-04-18T12:12:28.674Z,12.97
2023-04-18T12:15:00.742Z,13.10
2023-04-18T12:17:28.577Z,13.17
2023-04-18T12:19:57.754Z,13.67
2023-04-18T12:22:38.793Z,16.70
2023-04-18T12:25:22.836Z,13.50
2023-04-18T12:27:53.953Z,13.10
2023-04-18T12:30:22.412Z,13.60
2023-04-18T12:32:51.625Z,14.40
2023-04-18T12:35:20.092Z,14.77
2023-04-18T12:37:48.284Z,15.17
2023-04-18T12:40:18.893Z,16.00
2023-04-18T12:42:46.867Z,16.10
2023-04-18T12:45:14.937Z,17.00
2023-04-18T12:47:43.273Z,15.30
2023-04-18T12:50:12.361Z,15.43
2023-04-18T12:52:41.011Z,15.70
2023-04-18T12:55:09.397Z,15.57
2023-04-18T12:57:38.764Z,16.53
2023-04-18T13:00:11.134Z,15.30
2023-04-18T13:02:40.150Z,16.33
2023-04-18T13:05:08.535Z,16.23
2023-04-18T13:07:40.589Z,16.20
2023-04-18T13:10:09.265Z,17.07
2023-04-18T13:12:38.434Z,16.30
2023-04-18T13:15:07.571Z,16.33
2023-04-18T13:17:36.642Z,16.93
2023-04-18T13:20:06.249Z,17.50
2023-04-18T13:22:34.502Z,18.70
2023-04-18T13:25:02.371Z,17.23
2023-04-18T13:27:30.695Z,16.77
2023-04-18T13:30:00.073Z,17.57
2023-04-18T13:32:27.768Z,16.43
2023-04-18T13:34:56.243Z,16.13
2023-04-18T13:37:25.956Z,16.60
2023-04-18T13:39:53.648Z,16.23
2023-04-18T13:42:21.633Z,17.13
2023-04-18T13:44:50.118Z,16.40
2023-04-18T13:47:19.536Z,16.53
2023-04-18T13:49:47.258Z,16.30
2023-04-18T13:52:15.003Z,16.53
2023-04-18T13:54:42.668Z,17.27
2023-04-18T13:57:12.331Z,17.17
2023-04-18T13:59:41.090Z,14.80
2023-04-18T14:02:09.397Z,16.07
2023-04-18T14:04:39.028Z,15.70
2023-04-18T14:07:08.170Z,14.17
2023-04-18T14:09:36.016Z,13.80
2023-04-18T14:12:03.809Z,14.33
2023-04-18T14:14:31.703Z,14.57
2023-04-18T14:16:59.458Z,16.23
2023-04-18T14:19:27.744Z,13.70
2023-04-18T14:21:57.317Z,13.97
2023-04-18T14:24:24.996Z,13.07
2023-04-18T14:26:52.925Z,12.87
2023-04-18T14:29:22.153Z,13.30
2023-04-18T14:31:49.899Z,12.40
2023-04-18T14:34:17.577Z,13.90
2023-04-18T14:36:45.789Z,13.93
2023-04-18T14:39:15.216Z,13.60
2023-04-18T14:41:43.291Z,13.73
2023-04-18T14:44:11.166Z,13.40
2023-04-18T14:46:39.241Z,15.50
2023-04-18T14:49:06.882Z,13.00
2023-04-18T14:51:35.064Z,12.50
2023-04-18T14:54:03.061Z,13.97
2023-04-18T14:56:32.100Z,13.50
2023-04-18T14:59:00.581Z,12.67
2023-04-18T15:01:28.484Z,13.20
2023-04-18T15:03:56.331Z,14.70
2023-04-18T15:06:24.335Z,14.10
2023-04-18T15:08:53.138Z,14.30
2023-04-18T15:11:21.552Z,12.30
2023-04-18T15:13:53.244Z,13.03
2023-04-18T15:16:21.269Z,14.43
2023-04-18T15:18:49.066Z,12.87
2023-04-18T15:21:17.119Z,11.70
2023-04-18T15:23:44.741Z,11.00
2023-04-18T15:26:12.598Z,10.90
2023-04-18T15:28:40.543Z,9.60
2023-04-18T15:31:10.850Z,9.93
2023-04-18T15:33:38.761Z,9.50
2023-04-18T15:36:06.676Z,9.10
2023-04-18T15:38:34.527Z,8.30
2023-04-18T15:41:02.346Z,8.60
2023-04-18T15:43:30.430Z,8.97
2023-04-18T15:45:58.256Z,8.80
2023-04-18T15:48:28.523Z,9.60
2023-04-18T15:50:56.968Z,9.47
2023-04-18T15:53:24.697Z,8.53
2023-04-18T15:55:53.743Z,8.60
2023-04-18T15:58:22.200Z,8.50
2023-04-18T16:00:50.910Z,8.40
2023-04-18T16:03:18.926Z,8.93
2023-04-18T16:05:49.679Z,8.03
2023-04-18T16:08:17.914Z,9.97
2023-04-18T16:10:45.604Z,7.33
2023-04-18T16:13:14.090Z,6.97
2023-04-18T16:15:42.764Z,6.93
2023-04-18T16:18:10.686Z,8.07
2023-04-18T16:20:38.445Z,7.10
2023-04-18T16:23:07.521Z,6.40
2023-04-18T16:25:35.475Z,8.40
2023-04-18T16:28:03.367Z,6.73
2023-04-18T16:30:31.568Z,6.63
2023-04-18T16:32:59.447Z,5.97
2023-04-18T16:35:27.381Z,6.13
2023-04-18T16:37:55.112Z,6.47
2023-04-18T16:40:24.363Z,6.30
2023-04-18T16:42:52.775Z,6.70
2023-04-18T16:45:20.699Z,6.40
2023-04-18T16:47:49.227Z,6.10
2023-04-18T16:50:17.574Z,5.70
2023-04-18T16:52:45.440Z,5.80
2023-04-18T16:55:13.138Z,5.50
2023-04-18T16:57:42.513Z,5.23
2023-04-18T17:00:13.466Z,6.07
2023-04-18T17:02:43.276Z,5.53
2023-04-18T17:05:11.639Z,5.97
2023-04-18T17:07:39.315Z,5.90
2023-04-18T17:10:10.057Z,4.80
2023-04-18T17:12:38.582Z,6.63
2023-04-18T17:15:08.317Z,6.60
2023-04-18T17:17:36.571Z,6.00
2023-04-18T17:20:06.840Z,5.50
2023-04-18T17:22:34.567Z,6.50
2023-04-18T17:25:03.425Z,6.13
2023-04-18T17:27:31.515Z,5.60
2023-04-18T17:29:59.600Z,5.70
2023-04-18T17:32:28.794Z,7.90
2023-04-18T17:34:57.279Z,6.80
2023-04-18T17:37:25.012Z,7.20
2023-04-18T17:39:54.520Z,7.87
2023-04-18T17:42:22.243Z,6.97
2023-04-18T17:44:50.044Z,6.60
2023-04-18T17:47:18.634Z,6.80
2023-04-18T17:49:47.690Z,7.10
2023-04-18T17:52:15.421Z,6.70
2023-04-18T17:54:43.295Z,6.97
2023-04-18T17:57:11.696Z,6.33
2023-04-18T17:59:39.400Z,7.70
2023-04-18T18:02:08.115Z,8.57
2023-04-18T18:04:36.355Z,9.60
2023-04-18T18:07:05.895Z,9.30
2023-04-18T18:09:33.580Z,6.70
2023-04-18T18:12:02.697Z,10.10
2023-04-18T18:14:30.505Z,8.50
2023-04-18T18:16:58.260Z,9.00
2023-04-18T18:19:26.199Z,8.00
2023-04-18T18:21:53.928Z,6.83
2023-04-18T18:24:25.075Z,7.10
2023-04-18T18:26:52.959Z,7.07
2023-04-18T18:29:21.061Z,7.60
2023-04-18T18:31:48.859Z,10.67
2023-04-18T18:34:16.840Z,10.63
2023-04-18T18:36:44.813Z,9.13
2023-04-18T18:39:14.771Z,7.20
2023-04-18T18:41:44.189Z,7.30
2023-04-18T18:44:12.786Z,6.87
2023-04-18T18:46:42.660Z,7.60
2023-04-18T18:49:11.130Z,7.57
2023-04-18T18:51:38.842Z,6.87
2023-04-18T18:54:06.906Z,7.10
2023-04-18T18:56:34.623Z,7.13
2023-04-18T18:59:04.201Z,6.73
2023-04-18T19:01:32.211Z,6.73
2023-04-18T19:04:00.119Z,6.63
2023-04-18T19:06:28.820Z,7.80
2023-04-18T19:08:56.692Z,6.10
2023-04-18T19:11:24.867Z,7.10
2023-04-18T19:13:52.800Z,7.13
2023-04-18T19:16:22.422Z,7.70
2023-04-18T19:18:51.277Z,6.00
2023-04-18T19:21:20.095Z,6.50
2023-04-18T19:23:47.824Z,7.00
2023-04-18T19:26:15.582Z,6.70
2023-04-18T19:28:43.316Z,7.03
2023-04-18T19:31:11.358Z,9.63
2023-04-18T19:33:40.442Z,7.67
2023-04-18T19:36:08.275Z,8.30
2023-04-18T19:38:36.206Z,8.80
2023-04-18T19:41:03.945Z,7.40
2023-04-18T19:43:32.211Z,8.10
2023-04-18T19:46:00.431Z,6.80
2023-04-18T19:48:28.598Z,6.47
2023-04-18T19:50:58.237Z,7.07
2023-04-18T19:53:26.025Z,6.27
2023-04-18T19:55:54.958Z,7.33
2023-04-18T19:58:35.951Z,6.80
2023-04-18T20:01:05.832Z,6.83
2023-04-18T20:03:34.169Z,8.70
2023-04-18T20:06:05.577Z,7.40
2023-04-18T20:08:33.330Z,7.10
2023-04-18T20:11:01.033Z,7.17
2023-04-18T20:13:30.475Z,8.20
2023-04-18T20:15:58.725Z,7.47
2023-04-18T20:18:26.726Z,8.00
2023-04-18T20:20:54.534Z,7.10
2023-04-18T20:23:23.605Z,7.20
2023-04-18T20:25:51.577Z,7.90
2023-04-18T20:28:19.440Z,7.70
2023-04-18T20:30:47.910Z,6.37
2023-04-18T20:33:15.731Z,7.27
2023-04-18T20:35:44.414Z,7.90
2023-04-18T20:38:12.278Z,9.73
2023-04-18T20:40:44.995Z,10.60
2023-04-18T20:43:17.266Z,9.80
2023-04-18T20:45:45.977Z,7.60
2023-04-18T20:48:13.668Z,8.80
2023-04-18T20:50:43.862Z,8.17
2023-04-18T20:53:12.061Z,8.10
2023-04-18T20:55:39.730Z,9.40
2023-04-18T20:58:09.031Z,9.97
2023-04-18T21:00:37.334Z,12.23
2023-04-18T21:03:05.530Z,13.20
2023-04-18T21:05:33.309Z,9.67
2023-04-18T21:08:02.057Z,11.03
2023-04-18T21:10:29.934Z,8.27
2023-04-18T21:12:57.809Z,9.30
2023-04-18T21:15:26.964Z,9.70
2023-04-18T21:17:54.759Z,8.37
2023-04-18T21:20:22.989Z,9.27
2023-04-18T21:22:50.791Z,8.80
2023-04-18T21:25:19.480Z,8.83
2023-04-18T21:27:47.144Z,10.83
2023-04-18T21:30:15.184Z,10.00
2023-04-18T21:32:44.306Z,10.20
2023-04-18T21:35:13.422Z,10.47
2023-04-18T21:37:41.350Z,10.10
2023-04-18T21:40:09.934Z,9.70
2023-04-18T21:42:37.810Z,9.30
2023-04-18T21:45:07.261Z,8.40
2023-04-18T21:47:35.197Z,9.17
2023-04-18T21:50:04.372Z,9.97
2023-04-18T21:52:32.570Z,10.60
2023-04-18T21:55:00.450Z,9.23
2023-04-18T21:57:28.613Z,9.10
2023-04-18T21:59:57.961Z,9.23
2023-04-18T22:02:26.256Z,9.37
2023-04-18T22:04:54.010Z,9.13
2023-04-18T22:07:24.079Z,11.73
2023-04-18T22:09:52.102Z,11.43
2023-04-18T22:12:19.802Z,9.77
2023-04-18T22:14:48.629Z,12.20
2023-04-18T22:17:16.593Z,8.57
2023-04-18T22:19:44.978Z,8.60
2023-04-18T22:22:12.833Z,9.27
2023-04-18T22:24:41.938Z,10.30
2023-04-18T22:27:09.979Z,7.90
2023-04-18T22:29:37.849Z,9.10
2023-04-18T22:32:05.882Z,7.90
2023-04-18T22:34:33.667Z,7.60
2023-04-18T22:37:01.664Z,7.70
2023-04-18T22:39:31.057Z,7.17
2023-04-18T22:42:00.243Z,6.93
2023-04-18T22:44:28.647Z,6.83
2023-04-18T22:46:56.448Z,6.70
2023-04-18T22:49:24.197Z,7.10
2023-04-18T22:51:54.650Z,5.73
2023-04-18T22:54:22.623Z,6.20
2023-04-18T22:56:50.907Z,6.27
2023-04-18T22:59:20.342Z,6.17
2023-04-18T23:01:48.204Z,5.77
2023-04-18T23:04:16.397Z,6.33
2023-04-18T23:06:44.929Z,6.07
2023-04-18T23:09:12.717Z,5.57
2023-04-18T23:11:40.518Z,6.23
2023-04-18T23:14:08.764Z,6.40
2023-04-18T23:16:38.307Z,6.00
2023-04-18T23:19:06.199Z,5.60
2023-04-18T23:21:34.151Z,5.53
2023-04-18T23:24:01.851Z,6.20
2023-04-18T23:26:29.909Z,6.80
2023-04-18T23:28:58.109Z,5.30
2023-04-18T23:31:25.926Z,6.20
2023-04-18T23:33:56.551Z,4.87
2023-04-18T23:36:24.813Z,5.77
2023-04-18T23:38:52.594Z,5.03
2023-04-18T23:41:20.334Z,4.73
2023-04-18T23:43:49.611Z,4.93
2023-04-18T23:46:17.494Z,5.57
2023-04-18T23:48:45.487Z,4.93
2023-04-18T23:51:15.370Z,4.83
2023-04-18T23:53:43.201Z,4.37
2023-04-18T23:56:11.399Z,4.83
2023-04-18T23:58:39.577Z,4.93
